createdAt,value
2019-05-03T08:27:14.850Z,94.40
2019-05-03T08:29:45.394Z,94.90
2019-05-03T08:32:29.817Z,92.60
2019-05-03T08:35:18.236Z,92.00
2019-05-03T08:37:49.789Z,92.60
2019-05-03T08:40:19.562Z,93.50
2019-05-03T08:42:48.405Z,92.00
2019-05-03T08:45:17.228Z,92.00
2019-05-03T08:47:46.293Z,93.20
2019-05-03T08:50:21.177Z,92.30
2019-05-03T08:52:45.947Z,92.40
2019-05-03T08:55:15.864Z,91.70
2019-05-03T08:57:45.241Z,92.20
2019-05-03T09:00:16.331Z,90.60
2019-05-03T09:02:45.132Z,88.70
2019-05-03T09:05:15.760Z,87.70
2019-05-03T09:07:44.791Z,86.10
2019-05-03T09:10:24.962Z,82.90
2019-05-03T09:13:07.414Z,82.10
2019-05-03T09:15:36.502Z,84.20
2019-05-03T09:18:05.480Z,87.40
2019-05-03T09:20:35.596Z,90.40
2019-05-03T09:23:05.473Z,90.80
2019-05-03T09:25:35.565Z,92.10
2019-05-03T09:28:04.930Z,92.20
2019-05-03T09:30:35.686Z,86.30
2019-05-03T09:33:07.132Z,85.00
2019-05-03T09:35:36.120Z,78.20
2019-05-03T09:38:05.749Z,74.20
2019-05-03T09:40:35.353Z,71.60
2019-05-03T09:43:04.538Z,70.20
2019-05-03T09:45:35.310Z,72.40
2019-05-03T09:48:05.727Z,71.20
2019-05-03T09:50:35.927Z,73.80
2019-05-03T09:53:05.601Z,75.90
2019-05-03T09:55:37.732Z,76.00
2019-05-03T09:58:06.794Z,76.60
2019-05-03T10:00:35.736Z,78.40
2019-05-03T10:03:05.640Z,80.60
2019-05-03T10:05:35.218Z,76.90
2019-05-03T10:08:05.090Z,77.20
2019-05-03T10:10:52.054Z,76.00
2019-05-03T10:13:23.587Z,76.20
2019-05-03T10:15:51.449Z,73.60
2019-05-03T10:18:20.326Z,73.80
2019-05-03T10:20:49.210Z,73.30
2019-05-03T10:23:37.189Z,65.40
2019-05-03T10:26:06.207Z,64.80
2019-05-03T10:28:35.126Z,67.00
2019-05-03T10:31:07.508Z,66.00
2019-05-03T10:33:48.020Z,66.70
2019-05-03T10:36:16.835Z,64.80
2019-05-03T10:38:46.263Z,65.00
2019-05-03T10:41:15.225Z,60.80
2019-05-03T10:43:45.182Z,60.60
2019-05-03T10:46:15.941Z,59.40
2019-05-03T10:48:45.375Z,61.10
2019-05-03T10:51:15.670Z,62.20
2019-05-03T10:53:47.197Z,63.70
2019-05-03T10:56:22.754Z,63.60
2019-05-03T10:59:08.019Z,61.10
2019-05-03T11:01:47.561Z,60.70
2019-05-03T11:04:16.393Z,60.00
2019-05-03T11:06:45.804Z,59.10
2019-05-03T11:09:15.246Z,58.60
2019-05-03T11:11:45.278Z,58.10
2019-05-03T11:14:14.965Z,59.20
2019-05-03T11:16:45.982Z,59.10
2019-05-03T11:19:14.690Z,60.00
2019-05-03T11:21:45.299Z,62.80
2019-05-03T11:24:14.892Z,65.30
2019-05-03T11:26:45.611Z,68.60
2019-05-03T11:29:15.841Z,69.30
2019-05-03T11:31:55.772Z,69.60
2019-05-03T11:34:27.780Z,70.30
2019-05-03T11:37:25.249Z,68.90
2019-05-03T11:39:55.853Z,65.70
2019-05-03T11:42:24.704Z,62.50
2019-05-03T11:44:53.625Z,60.60
2019-05-03T11:47:24.916Z,58.40
2019-05-03T11:49:54.678Z,57.10
2019-05-03T11:52:25.849Z,56.60
2019-05-03T11:54:55.308Z,57.30
2019-05-03T11:57:26.748Z,57.70
2019-05-03T11:59:55.597Z,57.40
2019-05-03T12:02:44.743Z,58.60
2019-05-03T12:05:22.056Z,59.50
2019-05-03T12:07:50.852Z,61.20
2019-05-03T12:10:32.456Z,60.10
2019-05-03T12:12:56.016Z,60.00
2019-05-03T12:15:24.847Z,60.80
2019-05-03T12:17:59.137Z,61.10
2019-05-03T12:20:28.892Z,57.80
2019-05-03T12:22:58.542Z,55.90
2019-05-03T12:25:28.649Z,56.70
2019-05-03T12:27:57.961Z,58.20
2019-05-03T12:30:27.734Z,56.30
2019-05-03T12:32:56.769Z,56.30
2019-05-03T12:35:25.681Z,58.10
2019-05-03T12:37:55.609Z,58.10
2019-05-03T12:40:25.513Z,55.30
2019-05-03T12:42:55.303Z,55.40
2019-05-03T12:45:24.870Z,55.10
2019-05-03T12:47:55.963Z,54.20
2019-05-03T12:50:25.212Z,52.70
2019-05-03T12:52:55.485Z,53.30
2019-05-03T12:55:24.854Z,54.90
2019-05-03T12:57:55.272Z,52.10
2019-05-03T13:00:42.158Z,51.50
2019-05-03T13:03:15.305Z,52.30
2019-05-03T13:05:44.966Z,52.10
2019-05-03T13:08:42.918Z,52.70
2019-05-03T13:11:11.812Z,50.30
2019-05-03T13:13:40.596Z,49.60
2019-05-03T13:16:12.059Z,47.40
2019-05-03T13:18:41.065Z,46.60
2019-05-03T13:21:09.928Z,47.10
2019-05-03T13:23:38.719Z,44.50
2019-05-03T13:26:07.859Z,45.00
2019-05-03T13:28:36.769Z,44.60
2019-05-03T13:31:06.107Z,45.30
2019-05-03T13:33:35.201Z,43.90
2019-05-03T13:36:04.405Z,44.90
2019-05-03T13:38:35.072Z,46.30
2019-05-03T13:41:06.243Z,47.50
2019-05-03T13:43:35.053Z,48.40
2019-05-03T13:46:05.114Z,48.80
2019-05-03T13:48:42.508Z,49.70
2019-05-03T13:51:05.327Z,49.40
2019-05-03T13:53:34.836Z,50.70
2019-05-03T13:56:04.711Z,51.70
2019-05-03T13:58:35.915Z,52.20
2019-05-03T14:01:05.447Z,53.00
2019-05-03T14:03:35.160Z,53.00
2019-05-03T14:06:08.572Z,53.20
2019-05-03T14:08:35.186Z,53.90
2019-05-03T14:11:05.015Z,54.60
2019-05-03T14:13:35.455Z,55.10
2019-05-03T14:16:05.517Z,55.60
2019-05-03T14:18:35.312Z,55.30
2019-05-03T14:21:19.160Z,55.10
2019-05-03T14:24:05.948Z,56.30
2019-05-03T14:26:35.213Z,54.60
2019-05-03T14:29:05.754Z,55.10
2019-05-03T16:49:47.837Z,62.10
2019-05-03T16:52:17.421Z,61.10
2019-05-03T16:54:46.480Z,61.30
2019-05-03T16:57:17.587Z,61.60
2019-05-03T16:59:46.690Z,61.20
2019-05-03T17:02:17.410Z,60.80
2019-05-03T17:04:52.627Z,61.40
2019-05-03T17:07:29.691Z,60.60
2019-05-03T17:10:22.117Z,60.90
2019-05-03T17:12:54.319Z,61.40
2019-05-03T17:15:24.988Z,60.40
2019-05-03T17:17:54.081Z,60.30
2019-05-03T17:20:23.040Z,60.50
2019-05-03T17:22:52.076Z,59.20
2019-05-03T17:25:20.963Z,59.20
2019-05-03T17:27:49.829Z,58.10
2019-05-03T17:30:18.903Z,58.00
2019-05-03T17:32:47.879Z,58.20
2019-05-03T17:35:16.733Z,58.70
2019-05-03T17:37:45.904Z,58.80
2019-05-03T17:40:32.347Z,58.70
2019-05-03T17:43:14.659Z,59.00
2019-05-03T17:45:51.557Z,59.40
2019-05-03T17:48:20.519Z,59.60
2019-05-03T17:50:51.158Z,60.50
2019-05-03T17:53:55.149Z,60.50
2019-05-03T17:56:35.558Z,61.10
2019-05-03T17:59:24.436Z,62.50
2019-05-03T18:02:23.697Z,63.00
2019-05-03T18:05:18.512Z,62.20
2019-05-03T18:08:13.256Z,61.70
2019-05-03T18:10:46.456Z,62.40
2019-05-03T18:13:15.499Z,62.40
2019-05-03T18:15:44.906Z,62.70
2019-05-03T18:18:15.613Z,63.00
2019-05-03T18:20:45.010Z,63.50
2019-05-03T18:23:15.354Z,64.00
2019-05-03T18:25:44.753Z,64.90
2019-05-03T18:28:14.815Z,70.30
2019-05-03T18:30:45.479Z,74.80
2019-05-03T18:33:15.402Z,78.00
2019-05-03T18:35:44.824Z,81.20
2019-05-03T18:38:14.836Z,84.50
2019-05-03T18:40:44.844Z,90.30
2019-05-03T18:43:20.995Z,92.40
2019-05-03T18:46:08.838Z,96.10
2019-05-03T18:48:37.788Z,98.90
2019-05-03T18:51:06.585Z,99.90
2019-05-03T18:53:35.449Z,99.90
2019-05-03T18:56:17.404Z,99.90
2019-05-03T18:58:49.584Z,99.90
2019-05-03T19:01:19.846Z,99.90
2019-05-03T19:03:51.712Z,99.90
2019-05-03T19:06:20.579Z,99.90
2019-05-03T19:09:11.930Z,99.90
2019-05-03T19:12:04.881Z,99.90
2019-05-03T19:14:33.870Z,99.90
2019-05-03T19:17:15.415Z,99.90
2019-05-03T19:19:45.795Z,99.90
2019-05-03T19:22:28.735Z,99.90
2019-05-03T19:25:04.057Z,99.90
2019-05-03T19:27:34.633Z,99.90
2019-05-03T19:30:05.090Z,99.90
2019-05-03T19:32:35.811Z,99.90
2019-05-03T19:35:12.831Z,99.90
2019-05-03T19:37:42.054Z,99.90
2019-05-03T19:40:10.948Z,99.90
2019-05-03T19:42:40.061Z,99.90
2019-05-03T19:45:09.027Z,99.90
2019-05-03T19:47:39.169Z,99.90
2019-05-03T19:50:08.073Z,99.90
2019-05-03T19:53:05.139Z,99.90
2019-05-03T19:55:34.321Z,99.90
2019-05-03T19:58:05.474Z,99.90
2019-05-03T20:00:45.572Z,99.90
2019-05-03T20:03:18.182Z,99.90
2019-05-03T20:05:53.561Z,99.90
2019-05-03T20:08:29.696Z,99.90
2019-05-03T20:11:18.034Z,99.90
2019-05-03T20:13:46.939Z,99.90
2019-05-03T20:16:15.950Z,99.90
2019-05-03T20:18:45.792Z,99.90
2019-05-03T20:21:17.877Z,99.90
2019-05-03T20:24:00.056Z,99.90
2019-05-03T20:26:29.231Z,99.90
2019-05-03T20:28:58.530Z,99.90
2019-05-03T20:31:27.953Z,99.90
2019-05-03T20:33:57.069Z,99.90
2019-05-03T20:36:30.116Z,99.90
2019-05-03T20:38:58.979Z,99.90
2019-05-03T20:41:27.823Z,99.90
2019-05-03T20:44:15.307Z,99.90
2019-05-03T20:46:52.352Z,99.90
2019-05-03T20:49:21.631Z,99.90
2019-05-03T20:51:51.493Z,99.90
2019-05-03T20:54:23.068Z,99.90
2019-05-03T20:56:52.277Z,99.90
2019-05-03T20:59:25.312Z,99.90
2019-05-03T21:01:54.630Z,99.90
2019-05-03T21:04:25.633Z,99.90
2019-05-03T21:06:55.230Z,99.90
2019-05-03T21:09:27.035Z,99.90
2019-05-03T21:11:55.870Z,99.90
2019-05-03T21:14:25.050Z,99.90
2019-05-03T21:17:06.753Z,99.90
2019-05-03T21:19:49.632Z,99.90
2019-05-03T21:22:21.797Z,99.90
2019-05-03T21:24:59.161Z,99.90
2019-05-03T21:27:28.084Z,99.90
2019-05-03T21:29:58.447Z,99.90
2019-05-03T21:32:27.801Z,99.90
2019-05-03T21:34:57.190Z,99.90
2019-05-03T21:37:26.691Z,99.90
2019-05-03T21:39:58.716Z,99.90
2019-05-03T21:42:31.621Z,99.90
2019-05-03T21:45:00.477Z,99.90
2019-05-03T21:47:49.403Z,99.90
2019-05-03T21:50:19.756Z,99.90
2019-05-03T21:52:50.196Z,99.90
2019-05-03T21:55:19.066Z,99.90
2019-05-03T21:57:48.413Z,99.90
2019-05-03T22:00:19.843Z,99.90
2019-05-03T22:02:50.704Z,99.90
2019-05-03T22:05:22.912Z,99.90
2019-05-03T22:07:55.041Z,99.90
2019-05-03T22:10:26.163Z,99.90
2019-05-03T22:12:54.948Z,99.90
2019-05-03T22:15:32.186Z,99.90
2019-05-03T22:18:08.233Z,99.90
2019-05-03T22:20:47.128Z,99.90
2019-05-03T22:23:36.736Z,99.90
2019-05-03T22:26:05.860Z,99.90
2019-05-03T22:28:35.195Z,99.90
2019-05-03T22:31:06.884Z,99.90
2019-05-03T22:33:34.927Z,99.90
2019-05-03T22:36:08.636Z,99.90
2019-05-03T22:38:38.282Z,99.90
2019-05-03T22:41:05.527Z,99.90
2019-05-03T22:43:34.920Z,99.90
2019-05-03T22:46:05.312Z,99.90
2019-05-03T22:48:34.356Z,99.90
2019-05-03T22:51:04.779Z,99.90
2019-05-03T22:53:34.378Z,99.90
2019-05-03T22:56:04.913Z,99.90
2019-05-03T22:58:35.458Z,99.90
2019-05-03T23:01:04.499Z,99.90
2019-05-03T23:03:40.494Z,99.90
2019-05-03T23:06:19.508Z,99.90
2019-05-03T23:08:39.888Z,99.90
2019-05-03T23:11:08.769Z,99.90
2019-05-03T23:13:37.805Z,99.90
2019-05-03T23:16:06.684Z,99.90
2019-05-03T23:18:35.485Z,99.90
2019-05-03T23:21:12.767Z,99.90
2019-05-03T23:23:52.151Z,99.90
2019-05-03T23:26:20.976Z,99.90
2019-05-03T23:28:49.785Z,99.90
2019-05-03T23:31:18.724Z,99.90
2019-05-03T23:33:47.600Z,99.90
2019-05-03T23:36:16.408Z,99.90
2019-05-03T23:38:45.404Z,99.90
2019-05-03T23:41:15.255Z,99.90
2019-05-03T23:43:45.051Z,99.90
2019-05-03T23:46:15.816Z,99.90
2019-05-03T23:48:44.874Z,99.90
2019-05-03T23:51:34.948Z,99.90
2019-05-03T23:54:05.559Z,99.90
2019-05-03T23:56:35.133Z,99.90
2019-05-03T23:59:05.563Z,99.90
